RKJK/KUV METAR and TAF weather

Enter ICAO airport designator
Station Type Date Time Source
RKJK METAR 2021/10/22 19:56 UTC NOAA

RKJK 221956Z 11007KT 9SM CLR 06/04 A3030 RMK AO2A SLP265 T00590037 $


Station Type Date Time Source
RKJK Decoded METAR 2021/10/22 19:56 UTC NOAA

Kunsan Ab, Korea, South (RKJK) 35-55N 126-37E 10M
Oct 22, 2021 - 03:56 PM EDT / 2021.10.22 1956 UTC
Wind: from the ESE (110 degrees) at 8 MPH (7 KT):0
Visibility: 9 mile(s):0
Sky conditions: clear
Temperature: 42.6 F (5.9 C)
Dew Point: 38.7 F (3.7 C)
Relative Humidity: 85%
Pressure (altimeter): 30.3 in. Hg (1026 hPa)
ob: RKJK 221956Z 11007KT 9SM CLR 06/04 A3030 RMK AO2A SLP265 T00590037
cycle: 20

Station Type Date Time Source
RKJK TAF 2021/10/22 16:15 UTC NOAA

TAF TAF RKJK 221600Z 2216/2322 14006KT 9000 BR FEW200 QNH3026INS
TEMPO 2220/2224 6000 BR
BECMG 2301/2302 34008KT 9999 NSW FEW200 QNH3032INS
BECMG 2316/2317 08006KT 9000 BR FEW200 QNH3030INS TX18/2306Z TN05/2220Z

Example: see airport list